sensor_id;sensor_type;location;lat;lon;timestamp;P1;durP1;ratioP1;P2;durP2;ratioP2
24090;SDS011;12272;52.426;17.100;2022-10-22T00:03:39;26.63;;;18.03;;
24090;SDS011;12272;52.426;17.100;2022-10-22T00:08:41;21.60;;;14.97;;
24090;SDS011;12272;52.426;17.100;2022-10-22T00:13:45;18.90;;;13.90;;
24090;SDS011;12272;52.426;17.100;2022-10-22T00:18:53;30.33;;;17.63;;
24090;SDS011;12272;52.426;17.100;2022-10-22T00:23:55;23.30;;;16.37;;
24090;SDS011;12272;52.426;17.100;2022-10-22T00:28:58;28.63;;;18.27;;
24090;SDS011;12272;52.426;17.100;2022-10-22T00:34:00;22.07;;;16.93;;
24090;SDS011;12272;52.426;17.100;2022-10-22T00:39:03;17.43;;;13.03;;
24090;SDS011;12272;52.426;17.100;2022-10-22T00:44:06;19.60;;;13.73;;
24090;SDS011;12272;52.426;17.100;2022-10-22T00:49:08;20.97;;;15.83;;
24090;SDS011;12272;52.426;17.100;2022-10-22T00:54:10;17.27;;;11.77;;
24090;SDS011;12272;52.426;17.100;2022-10-22T00:59:13;17.87;;;13.43;;
24090;SDS011;12272;52.426;17.100;2022-10-22T01:04:18;14.47;;;10.70;;
24090;SDS011;12272;52.426;17.100;2022-10-22T01:30:57;18.43;;;10.37;;
24090;SDS011;12272;52.426;17.100;2022-10-22T01:36:02;18.77;;;14.10;;
24090;SDS011;12272;52.426;17.100;2022-10-22T01:41:06;22.70;;;16.30;;
24090;SDS011;12272;52.426;17.100;2022-10-22T01:46:09;18.03;;;13.17;;
24090;SDS011;12272;52.426;17.100;2022-10-22T02:02:26;12.90;;;10.33;;
24090;SDS011;12272;52.426;17.100;2022-10-22T02:07:58;22.43;;;14.60;;
24090;SDS011;12272;52.426;17.100;2022-10-22T02:13:11;18.33;;;13.80;;
24090;SDS011;12272;52.426;17.100;2022-10-22T02:18:18;13.20;;;9.13;;
24090;SDS011;12272;52.426;17.100;2022-10-22T02:23:24;10.83;;;9.10;;
24090;SDS011;12272;52.426;17.100;2022-10-22T02:33:37;18.60;;;11.43;;
24090;SDS011;12272;52.426;17.100;2022-10-22T02:38:47;20.33;;;13.17;;
24090;SDS011;12272;52.426;17.100;2022-10-22T02:43:53;11.60;;;8.97;;
24090;SDS011;12272;52.426;17.100;2022-10-22T02:48:56;13.20;;;8.87;;
24090;SDS011;12272;52.426;17.100;2022-10-22T02:53:59;13.50;;;10.50;;
24090;SDS011;12272;52.426;17.100;2022-10-22T02:59:01;9.53;;;8.13;;
24090;SDS011;12272;52.426;17.100;2022-10-22T03:04:04;17.07;;;12.20;;
24090;SDS011;12272;52.426;17.100;2022-10-22T03:09:06;10.77;;;8.27;;
24090;SDS011;12272;52.426;17.100;2022-10-22T03:14:09;11.53;;;8.97;;
24090;SDS011;12272;52.426;17.100;2022-10-22T03:19:12;14.43;;;10.40;;
24090;SDS011;12272;52.426;17.100;2022-10-22T03:24:15;17.67;;;11.10;;
24090;SDS011;12272;52.426;17.100;2022-10-22T03:29:23;12.77;;;10.67;;
24090;SDS011;12272;52.426;17.100;2022-10-22T03:34:28;9.67;;;7.60;;
24090;SDS011;12272;52.426;17.100;2022-10-22T03:39:31;9.00;;;7.37;;
24090;SDS011;12272;52.426;17.100;2022-10-22T03:44:36;13.93;;;9.93;;
24090;SDS011;12272;52.426;17.100;2022-10-22T03:49:40;14.80;;;9.80;;
24090;SDS011;12272;52.426;17.100;2022-10-22T03:54:43;8.90;;;7.53;;
24090;SDS011;12272;52.426;17.100;2022-10-22T03:59:45;15.97;;;11.50;;
24090;SDS011;12272;52.426;17.100;2022-10-22T04:04:48;13.67;;;9.47;;
24090;SDS011;12272;52.426;17.100;2022-10-22T04:09:50;13.23;;;9.77;;
24090;SDS011;12272;52.426;17.100;2022-10-22T04:14:53;20.53;;;10.83;;
24090;SDS011;12272;52.426;17.100;2022-10-22T04:19:55;20.63;;;13.93;;
24090;SDS011;12272;52.426;17.100;2022-10-22T04:24:58;15.17;;;10.17;;
24090;SDS011;12272;52.426;17.100;2022-10-22T04:30:00;28.00;;;16.43;;
24090;SDS011;12272;52.426;17.100;2022-10-22T04:35:04;28.50;;;17.33;;
24090;SDS011;12272;52.426;17.100;2022-10-22T04:40:07;10.63;;;8.30;;
24090;SDS011;12272;52.426;17.100;2022-10-22T04:45:11;17.27;;;12.97;;
24090;SDS011;12272;52.426;17.100;2022-10-22T04:50:13;13.50;;;10.53;;
24090;SDS011;12272;52.426;17.100;2022-10-22T04:55:16;14.13;;;11.50;;
24090;SDS011;12272;52.426;17.100;2022-10-22T05:00:18;13.17;;;10.50;;
24090;SDS011;12272;52.426;17.100;2022-10-22T05:05:21;10.87;;;8.30;;
24090;SDS011;12272;52.426;17.100;2022-10-22T05:10:23;14.23;;;9.37;;
24090;SDS011;12272;52.426;17.100;2022-10-22T05:15:26;12.20;;;9.03;;
24090;SDS011;12272;52.426;17.100;2022-10-22T05:20:28;12.20;;;8.83;;
24090;SDS011;12272;52.426;17.100;2022-10-22T05:25:31;19.50;;;12.03;;
24090;SDS011;12272;52.426;17.100;2022-10-22T05:30:37;19.57;;;12.30;;
24090;SDS011;12272;52.426;17.100;2022-10-22T05:35:39;12.33;;;9.90;;
24090;SDS011;12272;52.426;17.100;2022-10-22T05:40:47;11.67;;;9.17;;
24090;SDS011;12272;52.426;17.100;2022-10-22T05:46:00;12.60;;;9.27;;
24090;SDS011;12272;52.426;17.100;2022-10-22T05:51:06;13.37;;;9.57;;
24090;SDS011;12272;52.426;17.100;2022-10-22T05:56:11;14.77;;;10.63;;
24090;SDS011;12272;52.426;17.100;2022-10-22T06:01:17;13.97;;;9.67;;
24090;SDS011;12272;52.426;17.100;2022-10-22T06:11:30;15.73;;;12.03;;
24090;SDS011;12272;52.426;17.100;2022-10-22T06:16:36;15.57;;;10.33;;
24090;SDS011;12272;52.426;17.100;2022-10-22T06:21:38;11.50;;;9.00;;
24090;SDS011;12272;52.426;17.100;2022-10-22T06:26:41;22.03;;;13.63;;
24090;SDS011;12272;52.426;17.100;2022-10-22T06:31:44;17.17;;;12.43;;
24090;SDS011;12272;52.426;17.100;2022-10-22T06:36:47;17.67;;;11.87;;
24090;SDS011;12272;52.426;17.100;2022-10-22T06:41:49;17.60;;;10.13;;
24090;SDS011;12272;52.426;17.100;2022-10-22T06:46:52;21.97;;;13.47;;
24090;SDS011;12272;52.426;17.100;2022-10-22T06:51:54;16.60;;;11.37;;
24090;SDS011;12272;52.426;17.100;2022-10-22T06:56:57;22.97;;;15.70;;
24090;SDS011;12272;52.426;17.100;2022-10-22T07:01:59;19.73;;;13.00;;
24090;SDS011;12272;52.426;17.100;2022-10-22T07:07:01;29.47;;;15.87;;
24090;SDS011;12272;52.426;17.100;2022-10-22T07:12:05;27.00;;;15.73;;
24090;SDS011;12272;52.426;17.100;2022-10-22T07:17:08;25.73;;;14.17;;
24090;SDS011;12272;52.426;17.100;2022-10-22T07:22:10;35.03;;;19.67;;
24090;SDS011;12272;52.426;17.100;2022-10-22T07:27:13;36.33;;;19.67;;
24090;SDS011;12272;52.426;17.100;2022-10-22T07:32:15;26.30;;;15.07;;
24090;SDS011;12272;52.426;17.100;2022-10-22T07:37:23;31.37;;;16.60;;
24090;SDS011;12272;52.426;17.100;2022-10-22T07:42:26;27.67;;;15.83;;
24090;SDS011;12272;52.426;17.100;2022-10-22T07:47:28;38.37;;;19.70;;
24090;SDS011;12272;52.426;17.100;2022-10-22T07:52:31;43.07;;;23.57;;
24090;SDS011;12272;52.426;17.100;2022-10-22T07:57:33;18.83;;;12.83;;
24090;SDS011;12272;52.426;17.100;2022-10-22T08:02:37;18.50;;;12.37;;
24090;SDS011;12272;52.426;17.100;2022-10-22T08:07:40;31.33;;;17.90;;
24090;SDS011;12272;52.426;17.100;2022-10-22T08:12:43;24.00;;;13.97;;
24090;SDS011;12272;52.426;17.100;2022-10-22T08:17:45;43.27;;;23.73;;
24090;SDS011;12272;52.426;17.100;2022-10-22T08:22:48;26.60;;;15.10;;
24090;SDS011;12272;52.426;17.100;2022-10-22T08:27:50;15.20;;;10.53;;
24090;SDS011;12272;52.426;17.100;2022-10-22T08:32:53;16.33;;;10.07;;
24090;SDS011;12272;52.426;17.100;2022-10-22T08:37:55;23.23;;;15.37;;
24090;SDS011;12272;52.426;17.100;2022-10-22T08:58:55;38.43;;;23.30;;
24090;SDS011;12272;52.426;17.100;2022-10-22T09:04:35;44.17;;;25.50;;
24090;SDS011;12272;52.426;17.100;2022-10-22T09:09:44;19.60;;;12.50;;
24090;SDS011;12272;52.426;17.100;2022-10-22T09:14:52;16.00;;;11.50;;
24090;SDS011;12272;52.426;17.100;2022-10-22T09:25:18;21.27;;;15.13;;
24090;SDS011;12272;52.426;17.100;2022-10-22T09:30:24;38.17;;;19.43;;
24090;SDS011;12272;52.426;17.100;2022-10-22T09:35:29;45.33;;;23.57;;
24090;SDS011;12272;52.426;17.100;2022-10-22T09:40:46;49.70;;;26.63;;
24090;SDS011;12272;52.426;17.100;2022-10-22T09:45:58;23.00;;;13.97;;
24090;SDS011;12272;52.426;17.100;2022-10-22T09:56:26;31.03;;;19.03;;
24090;SDS011;12272;52.426;17.100;2022-10-22T10:01:36;34.07;;;21.90;;
24090;SDS011;12272;52.426;17.100;2022-10-22T10:06:42;37.33;;;21.13;;
24090;SDS011;12272;52.426;17.100;2022-10-22T10:11:47;31.83;;;20.97;;
24090;SDS011;12272;52.426;17.100;2022-10-22T10:22:36;39.70;;;22.10;;
24090;SDS011;12272;52.426;17.100;2022-10-22T10:59:34;27.00;;;17.10;;
24090;SDS011;12272;52.426;17.100;2022-10-22T11:26:48;23.77;;;16.67;;
24090;SDS011;12272;52.426;17.100;2022-10-22T11:32:10;22.73;;;16.13;;
24090;SDS011;12272;52.426;17.100;2022-10-22T11:37:16;28.23;;;18.67;;
24090;SDS011;12272;52.426;17.100;2022-10-22T11:42:30;29.80;;;19.23;;
24090;SDS011;12272;52.426;17.100;2022-10-22T11:58:33;32.83;;;21.77;;
24090;SDS011;12272;52.426;17.100;2022-10-22T12:03:38;33.50;;;22.23;;
24090;SDS011;12272;52.426;17.100;2022-10-22T12:19:16;35.40;;;23.93;;
24090;SDS011;12272;52.426;17.100;2022-10-22T12:24:30;32.77;;;24.33;;
24090;SDS011;12272;52.426;17.100;2022-10-22T12:29:36;35.20;;;25.90;;
24090;SDS011;12272;52.426;17.100;2022-10-22T12:34:44;31.60;;;23.43;;
24090;SDS011;12272;52.426;17.100;2022-10-22T12:39:48;38.27;;;25.93;;
24090;SDS011;12272;52.426;17.100;2022-10-22T12:44:55;35.83;;;27.17;;
24090;SDS011;12272;52.426;17.100;2022-10-22T12:49:57;35.27;;;25.80;;
24090;SDS011;12272;52.426;17.100;2022-10-22T12:55:04;39.03;;;27.90;;
24090;SDS011;12272;52.426;17.100;2022-10-22T13:00:24;36.80;;;27.43;;
24090;SDS011;12272;52.426;17.100;2022-10-22T13:05:30;36.13;;;26.43;;
24090;SDS011;12272;52.426;17.100;2022-10-22T13:10:40;38.70;;;26.63;;
24090;SDS011;12272;52.426;17.100;2022-10-22T13:15:49;35.47;;;25.90;;
24090;SDS011;12272;52.426;17.100;2022-10-22T13:20:54;36.40;;;24.70;;
24090;SDS011;12272;52.426;17.100;2022-10-22T13:26:03;38.57;;;28.00;;
24090;SDS011;12272;52.426;17.100;2022-10-22T13:36:23;26.17;;;19.80;;
24090;SDS011;12272;52.426;17.100;2022-10-22T13:41:27;31.87;;;22.73;;
24090;SDS011;12272;52.426;17.100;2022-10-22T13:46:33;32.40;;;21.73;;
24090;SDS011;12272;52.426;17.100;2022-10-22T13:51:41;29.70;;;21.23;;
24090;SDS011;12272;52.426;17.100;2022-10-22T13:56:44;29.77;;;21.03;;
24090;SDS011;12272;52.426;17.100;2022-10-22T14:01:47;27.50;;;19.40;;
24090;SDS011;12272;52.426;17.100;2022-10-22T14:06:50;31.40;;;22.20;;
24090;SDS011;12272;52.426;17.100;2022-10-22T14:11:52;28.73;;;19.87;;
24090;SDS011;12272;52.426;17.100;2022-10-22T14:16:55;37.33;;;21.27;;
24090;SDS011;12272;52.426;17.100;2022-10-22T14:21:57;31.67;;;21.80;;
24090;SDS011;12272;52.426;17.100;2022-10-22T14:27:00;29.47;;;21.03;;
24090;SDS011;12272;52.426;17.100;2022-10-22T14:32:02;30.03;;;21.43;;
24090;SDS011;12272;52.426;17.100;2022-10-22T14:37:25;36.90;;;23.23;;
24090;SDS011;12272;52.426;17.100;2022-10-22T14:42:27;38.37;;;25.57;;
24090;SDS011;12272;52.426;17.100;2022-10-22T14:47:30;42.23;;;28.20;;
24090;SDS011;12272;52.426;17.100;2022-10-22T14:52:34;52.30;;;27.47;;
24090;SDS011;12272;52.426;17.100;2022-10-22T14:57:36;43.67;;;27.33;;
24090;SDS011;12272;52.426;17.100;2022-10-22T15:02:42;48.53;;;28.27;;
24090;SDS011;12272;52.426;17.100;2022-10-22T15:07:45;52.73;;;29.53;;
24090;SDS011;12272;52.426;17.100;2022-10-22T15:12:48;44.17;;;27.63;;
24090;SDS011;12272;52.426;17.100;2022-10-22T15:17:51;54.37;;;29.87;;
24090;SDS011;12272;52.426;17.100;2022-10-22T15:22:53;37.57;;;25.00;;
24090;SDS011;12272;52.426;17.100;2022-10-22T15:27:57;34.80;;;22.73;;
24090;SDS011;12272;52.426;17.100;2022-10-22T15:33:08;38.37;;;23.87;;
24090;SDS011;12272;52.426;17.100;2022-10-22T15:38:11;30.50;;;21.63;;
24090;SDS011;12272;52.426;17.100;2022-10-22T15:43:14;30.60;;;22.20;;
24090;SDS011;12272;52.426;17.100;2022-10-22T15:48:16;38.23;;;24.20;;
24090;SDS011;12272;52.426;17.100;2022-10-22T15:53:18;25.13;;;19.33;;
24090;SDS011;12272;52.426;17.100;2022-10-22T15:58:21;31.93;;;23.30;;
24090;SDS011;12272;52.426;17.100;2022-10-22T16:03:23;31.67;;;20.93;;
24090;SDS011;12272;52.426;17.100;2022-10-22T16:08:26;30.60;;;20.27;;
24090;SDS011;12272;52.426;17.100;2022-10-22T16:13:29;33.90;;;19.47;;
24090;SDS011;12272;52.426;17.100;2022-10-22T16:18:32;23.53;;;18.17;;
24090;SDS011;12272;52.426;17.100;2022-10-22T16:23:35;29.03;;;20.23;;
24090;SDS011;12272;52.426;17.100;2022-10-22T16:28:37;25.90;;;18.70;;
24090;SDS011;12272;52.426;17.100;2022-10-22T16:33:40;29.87;;;20.30;;
24090;SDS011;12272;52.426;17.100;2022-10-22T16:38:50;27.07;;;21.27;;
24090;SDS011;12272;52.426;17.100;2022-10-22T16:43:53;27.37;;;19.93;;
24090;SDS011;12272;52.426;17.100;2022-10-22T16:48:56;28.93;;;20.67;;
24090;SDS011;12272;52.426;17.100;2022-10-22T16:53:59;25.70;;;18.70;;
24090;SDS011;12272;52.426;17.100;2022-10-22T16:59:01;26.00;;;18.60;;
24090;SDS011;12272;52.426;17.100;2022-10-22T17:04:03;24.90;;;18.07;;
24090;SDS011;12272;52.426;17.100;2022-10-22T17:09:06;22.77;;;17.77;;
24090;SDS011;12272;52.426;17.100;2022-10-22T17:14:08;23.97;;;18.60;;
24090;SDS011;12272;52.426;17.100;2022-10-22T17:19:11;25.73;;;18.97;;
24090;SDS011;12272;52.426;17.100;2022-10-22T17:24:16;22.60;;;17.27;;
24090;SDS011;12272;52.426;17.100;2022-10-22T17:29:19;26.03;;;18.90;;
24090;SDS011;12272;52.426;17.100;2022-10-22T17:34:22;23.37;;;18.17;;
24090;SDS011;12272;52.426;17.100;2022-10-22T17:39:25;25.37;;;18.57;;
24090;SDS011;12272;52.426;17.100;2022-10-22T17:44:28;32.83;;;21.87;;
24090;SDS011;12272;52.426;17.100;2022-10-22T17:49:30;24.93;;;18.80;;
24090;SDS011;12272;52.426;17.100;2022-10-22T17:54:33;30.27;;;20.07;;
24090;SDS011;12272;52.426;17.100;2022-10-22T17:59:36;22.03;;;17.17;;
24090;SDS011;12272;52.426;17.100;2022-10-22T18:04:38;26.57;;;18.17;;
24090;SDS011;12272;52.426;17.100;2022-10-22T18:09:41;22.83;;;17.17;;
24090;SDS011;12272;52.426;17.100;2022-10-22T18:14:43;24.73;;;19.17;;
24090;SDS011;12272;52.426;17.100;2022-10-22T18:19:47;24.73;;;19.37;;
24090;SDS011;12272;52.426;17.100;2022-10-22T18:24:50;31.50;;;21.57;;
24090;SDS011;12272;52.426;17.100;2022-10-22T18:29:53;24.93;;;19.47;;
24090;SDS011;12272;52.426;17.100;2022-10-22T18:34:56;20.27;;;15.93;;
24090;SDS011;12272;52.426;17.100;2022-10-22T18:39:58;35.90;;;21.80;;
24090;SDS011;12272;52.426;17.100;2022-10-22T18:45:01;26.93;;;19.27;;
24090;SDS011;12272;52.426;17.100;2022-10-22T18:50:04;30.80;;;19.17;;
24090;SDS011;12272;52.426;17.100;2022-10-22T18:55:06;22.90;;;17.93;;
24090;SDS011;12272;52.426;17.100;2022-10-22T19:00:09;24.87;;;17.90;;
24090;SDS011;12272;52.426;17.100;2022-10-22T19:05:12;26.53;;;17.63;;
24090;SDS011;12272;52.426;17.100;2022-10-22T19:10:15;25.80;;;19.27;;
24090;SDS011;12272;52.426;17.100;2022-10-22T19:15:18;29.10;;;20.77;;
24090;SDS011;12272;52.426;17.100;2022-10-22T19:20:20;26.70;;;19.63;;
24090;SDS011;12272;52.426;17.100;2022-10-22T19:25:23;23.00;;;17.83;;
24090;SDS011;12272;52.426;17.100;2022-10-22T19:30:25;23.43;;;17.30;;
24090;SDS011;12272;52.426;17.100;2022-10-22T19:35:28;24.07;;;16.87;;
24090;SDS011;12272;52.426;17.100;2022-10-22T19:40:31;24.67;;;18.00;;
24090;SDS011;12272;52.426;17.100;2022-10-22T19:45:33;23.80;;;17.90;;
24090;SDS011;12272;52.426;17.100;2022-10-22T19:50:40;19.10;;;15.37;;
24090;SDS011;12272;52.426;17.100;2022-10-22T19:55:43;43.27;;;24.17;;
24090;SDS011;12272;52.426;17.100;2022-10-22T20:00:45;29.70;;;19.27;;
24090;SDS011;12272;52.426;17.100;2022-10-22T20:05:51;21.13;;;16.27;;
24090;SDS011;12272;52.426;17.100;2022-10-22T20:10:53;22.20;;;16.53;;
24090;SDS011;12272;52.426;17.100;2022-10-22T20:15:56;21.43;;;15.77;;
24090;SDS011;12272;52.426;17.100;2022-10-22T20:21:02;20.00;;;15.63;;
24090;SDS011;12272;52.426;17.100;2022-10-22T20:26:06;25.80;;;16.53;;
24090;SDS011;12272;52.426;17.100;2022-10-22T20:31:12;23.03;;;15.90;;
24090;SDS011;12272;52.426;17.100;2022-10-22T20:36:19;21.03;;;16.33;;
24090;SDS011;12272;52.426;17.100;2022-10-22T20:41:23;22.60;;;17.50;;
24090;SDS011;12272;52.426;17.100;2022-10-22T20:46:27;23.67;;;15.73;;
24090;SDS011;12272;52.426;17.100;2022-10-22T20:51:31;19.33;;;15.10;;
24090;SDS011;12272;52.426;17.100;2022-10-22T20:56:36;20.13;;;14.97;;
24090;SDS011;12272;52.426;17.100;2022-10-22T21:01:42;22.57;;;16.17;;
24090;SDS011;12272;52.426;17.100;2022-10-22T21:06:47;22.57;;;16.07;;
24090;SDS011;12272;52.426;17.100;2022-10-22T21:11:51;20.53;;;14.97;;
24090;SDS011;12272;52.426;17.100;2022-10-22T21:16:58;20.33;;;15.27;;
24090;SDS011;12272;52.426;17.100;2022-10-22T21:22:00;23.43;;;17.63;;
24090;SDS011;12272;52.426;17.100;2022-10-22T21:27:03;27.40;;;16.10;;
24090;SDS011;12272;52.426;17.100;2022-10-22T21:32:08;23.50;;;16.50;;
24090;SDS011;12272;52.426;17.100;2022-10-22T21:37:10;25.67;;;19.13;;
24090;SDS011;12272;52.426;17.100;2022-10-22T21:42:15;21.30;;;16.40;;
24090;SDS011;12272;52.426;17.100;2022-10-22T21:47:18;33.57;;;21.90;;
24090;SDS011;12272;52.426;17.100;2022-10-22T21:52:20;30.77;;;20.37;;
24090;SDS011;12272;52.426;17.100;2022-10-22T21:57:23;27.60;;;19.67;;
24090;SDS011;12272;52.426;17.100;2022-10-22T22:02:25;24.73;;;16.63;;
24090;SDS011;12272;52.426;17.100;2022-10-22T22:07:29;23.13;;;17.30;;
24090;SDS011;12272;52.426;17.100;2022-10-22T22:12:31;20.20;;;15.03;;
24090;SDS011;12272;52.426;17.100;2022-10-22T22:17:34;21.40;;;17.20;;
24090;SDS011;12272;52.426;17.100;2022-10-22T22:22:37;23.87;;;18.10;;
24090;SDS011;12272;52.426;17.100;2022-10-22T22:27:41;23.40;;;17.03;;
24090;SDS011;12272;52.426;17.100;2022-10-22T22:32:44;19.67;;;14.73;;
24090;SDS011;12272;52.426;17.100;2022-10-22T22:37:46;24.60;;;18.43;;
24090;SDS011;12272;52.426;17.100;2022-10-22T22:42:49;27.97;;;17.73;;
24090;SDS011;12272;52.426;17.100;2022-10-22T22:47:51;20.53;;;14.63;;
24090;SDS011;12272;52.426;17.100;2022-10-22T22:52:53;26.60;;;16.80;;
24090;SDS011;12272;52.426;17.100;2022-10-22T22:57:56;24.80;;;16.50;;
24090;SDS011;12272;52.426;17.100;2022-10-22T23:02:59;24.77;;;16.73;;
24090;SDS011;12272;52.426;17.100;2022-10-22T23:08:01;22.40;;;15.03;;
24090;SDS011;12272;52.426;17.100;2022-10-22T23:13:04;23.30;;;15.57;;
24090;SDS011;12272;52.426;17.100;2022-10-22T23:18:06;21.20;;;15.80;;
24090;SDS011;12272;52.426;17.100;2022-10-22T23:23:09;21.80;;;15.37;;
24090;SDS011;12272;52.426;17.100;2022-10-22T23:28:11;23.60;;;14.60;;
24090;SDS011;12272;52.426;17.100;2022-10-22T23:33:13;19.17;;;14.47;;
24090;SDS011;12272;52.426;17.100;2022-10-22T23:38:17;17.53;;;13.57;;
24090;SDS011;12272;52.426;17.100;2022-10-22T23:43:19;21.27;;;15.40;;
24090;SDS011;12272;52.426;17.100;2022-10-22T23:48:22;25.47;;;16.97;;
24090;SDS011;12272;52.426;17.100;2022-10-22T23:53:25;18.10;;;13.30;;
24090;SDS011;12272;52.426;17.100;2022-10-22T23:58:27;16.57;;;13.67;;
